createdAt,value
2022-08-04T00:00:14.271Z,11.07
2022-08-04T00:02:38.838Z,10.75
2022-08-04T00:04:52.601Z,11.45
2022-08-04T00:07:04.412Z,10.70
2022-08-04T00:09:28.980Z,10.48
2022-08-04T00:11:33.318Z,11.55
2022-08-04T00:13:38.172Z,10.65
2022-08-04T00:16:03.600Z,10.23
2022-08-04T00:18:07.599Z,10.13
2022-08-04T00:20:10.047Z,9.73
2022-08-04T00:22:13.281Z,10.20
2022-08-04T00:24:15.896Z,9.25
2022-08-04T00:28:21.666Z,9.55
2022-08-04T00:30:24.166Z,9.40
2022-08-04T00:32:33.698Z,9.38
2022-08-04T00:34:38.771Z,9.07
2022-08-04T00:36:41.507Z,9.32
2022-08-04T00:40:50.947Z,9.38
2022-08-04T00:43:15.260Z,8.68
2022-08-04T00:45:17.009Z,7.90
2022-08-04T00:47:37.350Z,8.05
2022-08-04T00:49:47.970Z,7.88
2022-08-04T00:52:33.316Z,7.88
2022-08-04T00:54:16.664Z,7.63
2022-08-04T00:56:43.150Z,8.07
2022-08-04T00:58:45.026Z,7.78
2022-08-04T01:01:03.268Z,8.18
2022-08-04T01:03:10.930Z,8.00
2022-08-04T01:05:21.791Z,7.10
2022-08-04T01:07:32.441Z,7.35
2022-08-04T01:09:39.948Z,7.50
2022-08-04T01:11:57.530Z,6.95
2022-08-04T01:14:22.747Z,7.13
2022-08-04T01:16:27.783Z,7.25
2022-08-04T01:18:35.467Z,6.97
2022-08-04T01:20:40.299Z,7.72
2022-08-04T01:22:56.814Z,7.32
2022-08-04T01:25:08.276Z,6.88
2022-08-04T01:27:19.887Z,7.00
2022-08-04T01:29:27.460Z,7.30
2022-08-04T01:31:35.518Z,7.53
2022-08-04T01:33:58.425Z,7.35
2022-08-04T01:36:04.540Z,7.65
2022-08-04T01:38:18.348Z,7.93
2022-08-04T01:40:23.258Z,7.10
2022-08-04T01:42:32.042Z,7.53
2022-08-04T01:44:35.851Z,7.80
2022-08-04T01:46:38.371Z,6.70
2022-08-04T01:48:40.395Z,6.70
2022-08-04T01:50:43.357Z,6.10
2022-08-04T01:52:50.736Z,6.80
2022-08-04T01:54:52.793Z,6.47
2022-08-04T01:56:56.097Z,6.30
2022-08-04T01:58:57.971Z,6.30
2022-08-04T02:01:08.751Z,5.72
2022-08-04T02:03:14.109Z,6.20
2022-08-04T02:05:17.020Z,6.15
2022-08-04T02:09:54.584Z,6.15
2022-08-04T02:12:05.858Z,6.05
2022-08-04T02:14:45.120Z,6.05
2022-08-04T02:16:52.240Z,5.97
2022-08-04T02:19:14.567Z,5.88
2022-08-04T02:21:20.205Z,5.28
2022-08-04T02:23:28.127Z,5.97
2022-08-04T02:25:32.575Z,5.15
2022-08-04T02:28:01.103Z,5.78
2022-08-04T02:30:04.428Z,5.18
2022-08-04T02:32:07.381Z,5.40
2022-08-04T02:36:16.640Z,5.22
2022-08-04T02:38:25.718Z,5.07
2022-08-04T02:40:29.962Z,4.75
2022-08-04T02:42:32.498Z,5.47
2022-08-04T02:44:35.340Z,5.07
2022-08-04T02:48:40.281Z,5.32
2022-08-04T02:50:43.507Z,5.22
2022-08-04T02:52:45.287Z,5.35
2022-08-04T02:54:47.615Z,5.27
2022-08-04T02:56:50.869Z,5.20
2022-08-04T02:58:53.876Z,5.22
2022-08-04T03:00:55.718Z,5.45
2022-08-04T03:03:33.057Z,5.13
2022-08-04T03:05:50.020Z,5.20
2022-08-04T03:08:21.176Z,5.15
2022-08-04T03:10:30.358Z,5.35
2022-08-04T03:12:44.220Z,5.30
2022-08-04T03:14:51.987Z,5.10
2022-08-04T03:17:05.638Z,5.38
2022-08-04T03:19:22.510Z,5.43
2022-08-04T03:21:43.298Z,4.88
2022-08-04T03:24:08.596Z,5.75
2022-08-04T03:26:32.555Z,5.18
2022-08-04T03:28:52.911Z,5.53
2022-08-04T03:31:06.515Z,5.35
2022-08-04T03:33:26.642Z,5.28
2022-08-04T03:35:34.664Z,5.30
2022-08-04T03:37:54.352Z,5.32
2022-08-04T03:40:13.045Z,5.93
2022-08-04T03:42:20.983Z,5.38
2022-08-04T03:44:25.550Z,5.75
2022-08-04T03:46:53.351Z,5.22
2022-08-04T03:49:13.996Z,5.53
2022-08-04T03:51:35.641Z,5.00
2022-08-04T03:53:44.730Z,5.20
2022-08-04T03:55:58.871Z,5.85
2022-08-04T03:58:15.794Z,5.22
2022-08-04T04:00:26.543Z,5.32
2022-08-04T04:03:04.007Z,5.78
2022-08-04T04:05:24.215Z,5.30
2022-08-04T04:07:44.965Z,5.43
2022-08-04T04:10:10.440Z,5.32
2022-08-04T04:12:18.620Z,5.35
2022-08-04T04:14:23.028Z,5.55
2022-08-04T04:16:43.657Z,4.88
2022-08-04T04:19:03.919Z,5.43
2022-08-04T04:21:24.651Z,5.78
2022-08-04T04:23:31.660Z,5.38
2022-08-04T04:25:49.592Z,5.70
2022-08-04T04:27:57.291Z,6.50
2022-08-04T04:30:23.874Z,6.85
2022-08-04T04:32:44.279Z,6.13
2022-08-04T04:35:18.584Z,7.03
2022-08-04T04:37:39.108Z,6.78
2022-08-04T04:40:08.806Z,7.18
2022-08-04T04:42:29.278Z,6.50
2022-08-04T04:44:50.087Z,6.63
2022-08-04T04:47:03.945Z,6.82
2022-08-04T04:49:11.699Z,6.50
2022-08-04T04:51:16.269Z,6.70
2022-08-04T04:53:40.827Z,6.70
2022-08-04T04:55:49.323Z,7.32
2022-08-04T04:57:53.137Z,6.95
2022-08-04T04:59:57.878Z,7.28
2022-08-04T05:02:02.514Z,7.30
2022-08-04T05:04:23.349Z,7.45
2022-08-04T05:06:33.988Z,7.45
2022-08-04T05:08:43.842Z,7.25
2022-08-04T05:11:08.878Z,7.07
2022-08-04T05:14:34.755Z,6.53
2022-08-04T05:15:56.227Z,6.95
2022-08-04T05:17:58.985Z,6.20
2022-08-04T05:20:03.419Z,5.80
2022-08-04T05:22:13.917Z,5.82
2022-08-04T05:24:18.798Z,5.68
2022-08-04T05:26:23.538Z,5.15
2022-08-04T05:28:27.905Z,5.72
2022-08-04T05:30:30.764Z,6.80
2022-08-04T05:32:48.368Z,5.35
2022-08-04T05:34:54.830Z,5.32
2022-08-04T05:37:01.717Z,5.88
2022-08-04T05:39:03.769Z,6.20
2022-08-04T05:41:06.640Z,5.70
2022-08-04T05:43:08.659Z,5.60
2022-08-04T05:47:12.895Z,5.80
2022-08-04T05:49:19.447Z,5.63
2022-08-04T05:51:24.393Z,6.20
2022-08-04T05:53:27.263Z,6.18
2022-08-04T05:55:48.965Z,6.03
2022-08-04T06:00:39.053Z,6.50
2022-08-04T06:02:35.277Z,6.70
2022-08-04T06:06:39.054Z,6.40
2022-08-04T06:08:41.012Z,6.50
2022-08-04T06:10:44.277Z,5.90
2022-08-04T06:12:53.131Z,6.50
2022-08-04T06:14:57.795Z,5.78
2022-08-04T06:17:05.913Z,6.25
2022-08-04T06:20:02.463Z,6.13
2022-08-04T06:22:07.011Z,5.28
2022-08-04T06:24:11.828Z,5.43
2022-08-04T06:26:24.209Z,6.07
2022-08-04T06:30:49.954Z,5.80
2022-08-04T06:37:41.847Z,5.30
2022-08-04T06:42:35.784Z,5.47
2022-08-04T06:44:41.457Z,4.45
2022-08-04T06:46:46.990Z,4.75
2022-08-04T06:48:49.965Z,4.95
2022-08-04T06:51:26.162Z,4.80
2022-08-04T06:53:19.330Z,5.00
2022-08-04T06:55:22.185Z,5.30
2022-08-04T06:57:28.333Z,4.18
2022-08-04T06:59:33.362Z,4.55
2022-08-04T07:01:36.951Z,4.20
2022-08-04T07:03:39.338Z,4.68
2022-08-04T07:05:42.340Z,4.18
2022-08-04T07:07:58.001Z,4.05
2022-08-04T07:10:01.327Z,4.28
2022-08-04T07:12:03.365Z,4.10
2022-08-04T07:14:05.511Z,4.25
2022-08-04T07:16:07.527Z,4.60
2022-08-04T07:18:09.206Z,4.57
2022-08-04T07:20:11.125Z,4.38
2022-08-04T07:22:24.635Z,3.60
2022-08-04T07:24:34.151Z,3.88
2022-08-04T07:26:35.906Z,3.83
2022-08-04T07:28:39.204Z,3.85
2022-08-04T07:30:40.970Z,4.25
2022-08-04T07:32:43.798Z,4.10
2022-08-04T07:34:49.878Z,3.60
2022-08-04T07:36:53.296Z,3.92
2022-08-04T07:38:57.951Z,3.65
2022-08-04T07:41:01.462Z,3.50
2022-08-04T07:43:03.208Z,3.70
2022-08-04T07:45:06.107Z,3.85
2022-08-04T07:47:17.479Z,3.92
2022-08-04T07:49:56.820Z,4.05
2022-08-04T07:51:43.398Z,3.50
2022-08-04T07:53:54.118Z,3.70
2022-08-04T07:55:57.908Z,3.67
2022-08-04T08:00:01.575Z,3.35
2022-08-04T08:02:04.013Z,3.85
2022-08-04T08:04:07.056Z,3.30
2022-08-04T08:06:17.169Z,3.58
2022-08-04T08:08:31.367Z,3.60
2022-08-04T08:10:33.000Z,3.80
2022-08-04T08:12:51.517Z,3.90
2022-08-04T08:14:53.689Z,3.60
2022-08-04T08:16:55.304Z,3.30
2022-08-04T08:18:57.165Z,3.65
2022-08-04T08:20:59.100Z,4.07
2022-08-04T08:23:01.926Z,3.78
2022-08-04T08:25:07.132Z,3.78
2022-08-04T08:27:09.017Z,3.90
2022-08-04T08:29:10.908Z,3.53
2022-08-04T08:31:12.752Z,4.03
2022-08-04T08:33:15.265Z,3.78
2022-08-04T08:35:17.038Z,3.80
2022-08-04T08:37:42.414Z,4.15
2022-08-04T08:39:54.356Z,3.67
2022-08-04T08:41:56.006Z,3.67
2022-08-04T08:44:04.639Z,4.03
2022-08-04T08:46:47.962Z,3.90
2022-08-04T08:48:56.653Z,3.95
2022-08-04T08:51:01.529Z,3.78
2022-08-04T08:53:22.797Z,3.75
2022-08-04T08:55:46.786Z,3.90
2022-08-04T08:58:00.334Z,3.60
2022-08-04T09:00:20.615Z,3.70
2022-08-04T09:02:41.789Z,3.80
2022-08-04T09:04:43.874Z,4.40
2022-08-04T09:07:06.068Z,3.83
2022-08-04T09:09:19.923Z,3.60
2022-08-04T09:11:27.842Z,3.97
2022-08-04T09:13:46.136Z,3.38
2022-08-04T09:16:04.647Z,3.65
2022-08-04T09:18:25.212Z,3.60
2022-08-04T09:20:39.372Z,3.53
2022-08-04T09:23:04.252Z,3.90
2022-08-04T09:25:09.623Z,3.75
2022-08-04T09:27:24.563Z,3.90
2022-08-04T09:29:44.964Z,3.55
2022-08-04T09:32:06.720Z,3.72
2022-08-04T09:34:14.326Z,3.80
2022-08-04T09:36:26.488Z,3.65
2022-08-04T09:40:55.136Z,3.63
2022-08-04T09:43:06.042Z,3.65
2022-08-04T09:45:13.548Z,3.65
2022-08-04T09:47:39.872Z,3.83
2022-08-04T09:49:51.172Z,3.80
2022-08-04T09:52:11.076Z,3.55
2022-08-04T09:54:29.971Z,4.00
2022-08-04T09:56:39.194Z,3.80
2022-08-04T09:58:50.246Z,3.40
2022-08-04T10:00:54.924Z,4.00
2022-08-04T10:02:58.516Z,3.80
2022-08-04T10:05:02.378Z,3.95
2022-08-04T10:07:04.244Z,3.92
2022-08-04T10:12:19.740Z,3.97
2022-08-04T10:14:40.791Z,4.22
2022-08-04T10:17:00.787Z,4.53
2022-08-04T10:19:20.323Z,4.65
2022-08-04T10:21:26.946Z,4.50
2022-08-04T10:23:56.567Z,4.25
2022-08-04T10:26:11.157Z,4.38
2022-08-04T10:28:16.342Z,4.70
2022-08-04T10:30:20.209Z,5.85
2022-08-04T10:32:26.357Z,5.30
2022-08-04T10:34:31.048Z,5.47
2022-08-04T10:36:41.688Z,4.78
2022-08-04T10:38:49.541Z,5.00
2022-08-04T10:41:03.743Z,4.88
2022-08-04T10:43:05.333Z,5.47
2022-08-04T10:45:26.177Z,5.60
2022-08-04T10:47:37.140Z,6.18
2022-08-04T10:49:43.442Z,5.22
2022-08-04T10:51:58.672Z,5.45
2022-08-04T10:54:03.349Z,5.25
2022-08-04T10:56:15.330Z,5.07
2022-08-04T10:58:20.147Z,5.17
2022-08-04T11:00:24.954Z,5.30
2022-08-04T11:02:45.637Z,5.00
2022-08-04T11:04:48.733Z,5.25
2022-08-04T11:06:52.976Z,5.25
2022-08-04T11:08:55.900Z,4.80
2022-08-04T11:11:19.044Z,4.80
2022-08-04T11:15:45.008Z,5.60
2022-08-04T11:17:52.287Z,4.90
2022-08-04T11:20:03.455Z,5.00
2022-08-04T11:22:23.066Z,4.88
2022-08-04T11:24:51.799Z,5.28
2022-08-04T11:26:58.763Z,4.90
2022-08-04T11:29:18.255Z,5.10
2022-08-04T11:31:22.736Z,4.90
2022-08-04T11:33:32.472Z,4.65
2022-08-04T11:35:50.698Z,4.55
2022-08-04T11:38:02.410Z,4.28
2022-08-04T11:40:11.653Z,5.07
2022-08-04T11:42:26.392Z,4.93
2022-08-04T11:44:36.685Z,4.68
2022-08-04T11:46:43.989Z,5.28
2022-08-04T11:48:50.899Z,4.90
2022-08-04T11:50:55.047Z,4.95
2022-08-04T11:52:59.533Z,4.90
2022-08-04T11:55:07.100Z,4.65
2022-08-04T11:57:10.300Z,5.10
2022-08-04T11:59:12.444Z,4.93
2022-08-04T12:01:21.768Z,5.03
2022-08-04T12:03:41.700Z,4.97
2022-08-04T12:05:55.277Z,4.63
2022-08-04T12:07:59.427Z,4.28
2022-08-04T12:10:01.022Z,4.78
2022-08-04T12:12:17.292Z,4.93
2022-08-04T12:14:33.757Z,5.10
2022-08-04T12:16:45.209Z,4.97
2022-08-04T12:19:03.121Z,5.03
2022-08-04T12:21:12.041Z,5.00
2022-08-04T12:23:23.250Z,4.97
2022-08-04T12:25:29.571Z,5.10
2022-08-04T12:27:41.407Z,4.80
2022-08-04T12:29:44.189Z,5.07
2022-08-04T12:32:26.681Z,4.90
2022-08-04T12:34:35.391Z,4.65
2022-08-04T12:36:43.979Z,4.68
2022-08-04T12:39:25.747Z,5.13
2022-08-04T12:41:32.710Z,4.50
2022-08-04T12:43:39.220Z,4.75
2022-08-04T12:45:48.543Z,4.88
2022-08-04T12:47:53.020Z,4.85
2022-08-04T12:50:01.405Z,4.82
2022-08-04T12:52:09.475Z,4.88
2022-08-04T12:54:12.618Z,4.90
2022-08-04T12:56:17.438Z,4.50
2022-08-04T12:58:42.709Z,4.55
2022-08-04T13:07:22.331Z,4.90
2022-08-04T13:09:28.067Z,4.97
2022-08-04T13:11:34.025Z,5.10
2022-08-04T13:13:37.708Z,4.80
2022-08-04T13:15:47.134Z,4.68
2022-08-04T13:18:05.141Z,4.30
2022-08-04T13:20:06.992Z,4.30
2022-08-04T13:22:12.077Z,5.35
2022-08-04T13:24:21.176Z,5.10
2022-08-04T13:26:43.580Z,4.97
2022-08-04T13:53:02.278Z,4.82
2022-08-04T13:55:08.187Z,4.20
2022-08-04T13:57:21.988Z,4.35
2022-08-04T14:02:20.802Z,4.50
2022-08-04T14:04:59.885Z,4.45
2022-08-04T14:07:26.437Z,4.45
2022-08-04T14:09:35.850Z,4.93
2022-08-04T14:12:06.121Z,4.28
2022-08-04T14:14:01.941Z,4.82
2022-08-04T14:16:15.388Z,4.30
2022-08-04T14:29:08.421Z,4.53
2022-08-04T14:31:10.968Z,4.18
2022-08-04T14:34:04.151Z,4.70
2022-08-04T14:35:50.337Z,4.22
2022-08-04T14:37:55.593Z,4.25
2022-08-04T14:40:18.235Z,4.20
2022-08-04T14:42:20.033Z,4.40
2022-08-04T14:44:22.100Z,4.57
2022-08-04T14:46:30.457Z,4.40
2022-08-04T14:48:42.913Z,4.22
2022-08-04T14:50:46.587Z,4.22
2022-08-04T14:54:50.259Z,4.43
2022-08-04T14:56:55.553Z,4.07
2022-08-04T14:59:01.458Z,4.30
2022-08-04T15:01:10.478Z,4.30
2022-08-04T15:03:14.082Z,4.30
2022-08-04T15:06:01.790Z,4.25
2022-08-04T15:07:38.147Z,4.25
2022-08-04T15:11:43.596Z,4.28
2022-08-04T15:13:45.397Z,4.97
2022-08-04T15:16:07.138Z,4.72
2022-08-04T15:18:10.197Z,4.45
2022-08-04T15:20:14.124Z,4.50
2022-08-04T15:22:17.539Z,4.43
2022-08-04T15:24:22.322Z,4.78
2022-08-04T15:26:44.644Z,4.18
2022-08-04T15:28:53.987Z,4.05
2022-08-04T15:30:56.245Z,4.57
2022-08-04T15:33:00.471Z,4.63
2022-08-04T15:35:12.623Z,3.90
2022-08-04T15:37:19.429Z,4.10
2022-08-04T15:39:39.804Z,3.95
2022-08-04T15:41:46.499Z,3.97
2022-08-04T15:44:16.121Z,4.00
2022-08-04T15:46:42.502Z,3.72
2022-08-04T15:48:46.389Z,4.35
2022-08-04T15:51:00.657Z,4.28
2022-08-04T15:58:14.238Z,4.22
2022-08-04T16:00:19.918Z,3.42
2022-08-04T16:02:29.246Z,4.03
2022-08-04T16:04:31.025Z,4.00
2022-08-04T16:06:34.608Z,4.10
2022-08-04T16:08:45.924Z,3.93
2022-08-04T16:10:59.595Z,4.40
2022-08-04T16:15:22.164Z,4.07
2022-08-04T16:17:28.536Z,3.65
2022-08-04T16:19:51.618Z,4.13
2022-08-04T16:21:54.570Z,5.57
2022-08-04T16:24:06.414Z,4.00
2022-08-04T16:26:08.503Z,4.35
2022-08-04T16:28:33.397Z,4.43
2022-08-04T16:30:40.860Z,4.20
2022-08-04T16:32:43.869Z,4.40
2022-08-04T16:34:55.289Z,3.80
2022-08-04T16:37:01.852Z,3.97
2022-08-04T16:39:04.636Z,4.15
2022-08-04T16:41:06.269Z,3.90
2022-08-04T16:43:16.534Z,3.78
2022-08-04T16:45:18.399Z,3.90
2022-08-04T16:47:39.939Z,3.83
2022-08-04T16:49:49.505Z,3.92
2022-08-04T16:51:54.680Z,3.78
2022-08-04T16:54:04.696Z,3.55
2022-08-04T16:56:08.928Z,3.08
2022-08-04T16:58:10.873Z,3.55
2022-08-04T17:00:12.680Z,3.45
2022-08-04T17:02:14.659Z,3.35
2022-08-04T17:04:17.297Z,3.60
2022-08-04T17:06:19.207Z,3.90
2022-08-04T17:08:30.037Z,3.35
2022-08-04T17:10:35.074Z,3.53
2022-08-04T17:12:36.762Z,3.67
2022-08-04T17:14:38.558Z,3.55
2022-08-04T17:16:41.945Z,3.00
2022-08-04T17:18:45.344Z,3.45
2022-08-04T17:21:01.090Z,3.42
2022-08-04T17:24:15.756Z,3.60
2022-08-04T17:25:59.752Z,3.53
2022-08-04T17:28:09.588Z,3.88
2022-08-04T17:30:27.160Z,3.08
2022-08-04T17:32:28.974Z,3.45
2022-08-04T17:34:30.785Z,3.22
2022-08-04T17:36:34.559Z,3.58
2022-08-04T17:38:56.932Z,3.25
2022-08-04T17:41:00.482Z,3.45
2022-08-04T17:45:53.861Z,3.53
2022-08-04T17:47:58.593Z,3.15
2022-08-04T17:50:08.363Z,3.65
2022-08-04T17:52:41.330Z,3.53
2022-08-04T17:54:43.331Z,3.90
2022-08-04T17:56:51.822Z,3.55
2022-08-04T17:59:12.305Z,3.33
2022-08-04T18:01:24.517Z,3.90
2022-08-04T18:03:30.378Z,3.67
2022-08-04T18:06:02.092Z,3.70
2022-08-04T18:08:39.249Z,3.45
2022-08-04T18:10:33.034Z,3.83
2022-08-04T18:12:38.563Z,4.03
2022-08-04T18:14:45.640Z,3.95
2022-08-04T18:16:51.055Z,3.30
2022-08-04T18:19:10.738Z,3.95
2022-08-04T18:21:12.325Z,3.75
2022-08-04T18:23:16.756Z,3.90
2022-08-04T18:25:21.368Z,4.28
2022-08-04T18:27:24.321Z,4.60
2022-08-04T18:29:31.449Z,4.30
2022-08-04T18:31:35.862Z,4.22
2022-08-04T18:33:41.577Z,3.75
2022-08-04T18:36:34.198Z,3.90
2022-08-04T18:38:22.876Z,3.85
2022-08-04T18:40:34.355Z,3.88
2022-08-04T18:42:44.427Z,3.88
2022-08-04T18:44:52.805Z,4.32
2022-08-04T18:46:57.398Z,3.97
2022-08-04T18:50:32.728Z,4.18
2022-08-04T18:51:49.102Z,4.22
2022-08-04T18:53:55.150Z,3.70
2022-08-04T18:56:00.489Z,4.57
2022-08-04T18:58:07.155Z,4.25
2022-08-04T19:00:14.727Z,4.05
2022-08-04T19:02:17.892Z,3.80
2022-08-04T19:04:33.587Z,4.10
2022-08-04T19:06:39.039Z,4.80
2022-08-04T19:08:42.786Z,4.68
2022-08-04T19:10:47.164Z,5.13
2022-08-04T19:12:55.964Z,4.70
2022-08-04T19:15:08.136Z,5.32
2022-08-04T19:17:12.857Z,5.40
2022-08-04T19:19:17.588Z,5.03
2022-08-04T19:22:01.625Z,4.95
2022-08-04T19:26:09.989Z,5.25
2022-08-04T19:28:19.981Z,5.20
2022-08-04T19:30:24.448Z,5.18
2022-08-04T19:32:26.234Z,5.38
2022-08-04T19:34:34.705Z,5.40
2022-08-04T19:36:36.487Z,5.30
2022-08-04T19:40:42.078Z,5.55
2022-08-04T19:43:04.887Z,5.18
2022-08-04T19:45:17.161Z,5.25
2022-08-04T19:48:11.611Z,5.45
2022-08-04T19:50:04.968Z,5.32
2022-08-04T19:52:03.069Z,5.07
2022-08-04T19:56:18.538Z,5.93
2022-08-04T19:58:21.930Z,5.47
2022-08-04T20:00:33.921Z,5.38
2022-08-04T20:02:36.246Z,5.90
2022-08-04T20:04:38.192Z,5.68
2022-08-04T20:06:40.178Z,5.50
2022-08-04T20:08:48.245Z,5.60
2022-08-04T20:10:51.851Z,5.70
2022-08-04T20:12:55.728Z,5.82
2022-08-04T20:14:57.676Z,5.43
2022-08-04T20:19:26.995Z,5.43
2022-08-04T20:21:53.469Z,5.97
2022-08-04T20:23:50.409Z,5.32
2022-08-04T20:25:52.342Z,5.53
2022-08-04T20:28:00.470Z,6.93
2022-08-04T20:30:07.597Z,5.25
2022-08-04T20:32:20.076Z,6.30
2022-08-04T20:34:23.796Z,7.30
2022-08-04T20:36:26.595Z,5.10
2022-08-04T20:38:33.239Z,5.45
2022-08-04T20:40:36.625Z,5.68
2022-08-04T20:42:38.736Z,5.38
2022-08-04T20:44:46.216Z,5.32
2022-08-04T20:46:48.401Z,5.30
2022-08-04T20:48:53.624Z,5.13
2022-08-04T20:50:55.607Z,5.25
2022-08-04T20:52:59.182Z,5.05
2022-08-04T20:55:01.448Z,4.80
2022-08-04T20:57:03.243Z,4.90
2022-08-04T20:59:07.946Z,4.88
2022-08-04T21:03:59.914Z,5.20
2022-08-04T21:06:04.291Z,5.30
2022-08-04T21:08:06.034Z,5.30
2022-08-04T21:10:09.099Z,5.03
2022-08-04T21:12:28.613Z,5.30
2022-08-04T21:14:30.779Z,5.97
2022-08-04T21:16:55.782Z,5.20
2022-08-04T21:18:54.270Z,5.78
2022-08-04T21:20:59.025Z,5.07
2022-08-04T21:23:03.703Z,5.35
2022-08-04T21:25:15.834Z,5.40
2022-08-04T21:27:18.156Z,5.90
2022-08-04T21:29:21.386Z,5.63
2022-08-04T21:31:24.371Z,5.43
2022-08-04T21:33:51.232Z,5.25
2022-08-04T21:35:54.227Z,4.78
2022-08-04T21:37:56.524Z,5.38
2022-08-04T21:40:13.674Z,5.95
2022-08-04T21:42:28.411Z,5.93
2022-08-04T21:44:31.640Z,5.90
2022-08-04T21:46:33.911Z,5.90
2022-08-04T21:48:44.377Z,5.93
2022-08-04T21:50:50.799Z,5.85
2022-08-04T21:52:52.500Z,6.18
2022-08-04T21:54:54.996Z,6.30
2022-08-04T21:56:56.783Z,5.82
2022-08-04T21:58:58.884Z,5.30
2022-08-04T22:01:00.745Z,5.78
2022-08-04T22:03:23.294Z,6.15
2022-08-04T22:05:29.452Z,6.18
2022-08-04T22:07:49.995Z,5.60
2022-08-04T22:10:02.283Z,6.10
2022-08-04T22:12:05.195Z,6.25
2022-08-04T22:14:11.177Z,6.13
2022-08-04T22:16:13.388Z,6.43
2022-08-04T22:18:15.576Z,6.43
2022-08-04T22:20:28.116Z,6.47
2022-08-04T22:22:33.398Z,5.97
2022-08-04T22:24:35.597Z,6.10
2022-08-04T22:26:37.363Z,6.20
2022-08-04T22:28:40.586Z,6.20
2022-08-04T22:30:52.089Z,6.18
2022-08-04T22:32:54.355Z,6.38
2022-08-04T22:34:56.526Z,5.68
2022-08-04T22:36:59.097Z,5.97
2022-08-04T22:39:07.326Z,5.53
2022-08-04T22:41:13.208Z,6.00
2022-08-04T22:43:32.780Z,6.10
2022-08-04T22:45:44.927Z,5.90
2022-08-04T22:47:52.787Z,6.60
2022-08-04T22:50:13.413Z,6.22
2022-08-04T22:52:20.506Z,6.45
2022-08-04T22:54:29.747Z,6.57
2022-08-04T22:56:38.619Z,5.95
2022-08-04T22:58:51.066Z,6.05
2022-08-04T23:00:58.142Z,6.53
2022-08-04T23:03:00.013Z,6.47
2022-08-04T23:05:01.811Z,6.25
2022-08-04T23:07:09.246Z,5.65
2022-08-04T23:09:15.920Z,6.22
2022-08-04T23:11:18.136Z,6.35
2022-08-04T23:13:19.875Z,6.78
2022-08-04T23:15:21.540Z,6.88
2022-08-04T23:17:24.206Z,6.38
2022-08-04T23:21:40.937Z,6.40
2022-08-04T23:23:55.314Z,6.35
2022-08-04T23:26:11.110Z,6.45
2022-08-04T23:28:12.784Z,5.72
2022-08-04T23:30:15.021Z,5.88
2022-08-04T23:32:20.454Z,6.47
2022-08-04T23:34:22.175Z,6.20
2022-08-04T23:36:29.473Z,6.45
2022-08-04T23:38:32.430Z,6.82
2022-08-04T23:40:50.225Z,6.05
2022-08-04T23:42:52.611Z,7.20
2022-08-04T23:44:54.793Z,6.18
2022-08-04T23:47:00.593Z,6.47
2022-08-04T23:49:02.581Z,6.00
2022-08-04T23:51:14.115Z,6.50
2022-08-04T23:53:18.776Z,6.20
2022-08-04T23:55:24.462Z,6.68
2022-08-04T23:58:05.504Z,6.47
2022-08-04T23:59:55.204Z,6.30
